sensor_id;sensor_type;location;lat;lon;timestamp;temperature;humidity
15596;DHT22;7898;48.658;9.068;2023-12-14T00:01:38;4.80;99.90
15596;DHT22;7898;48.658;9.068;2023-12-14T00:04:08;4.90;99.90
15596;DHT22;7898;48.658;9.068;2023-12-14T00:06:35;4.70;99.90
15596;DHT22;7898;48.658;9.068;2023-12-14T00:09:02;4.80;99.90
15596;DHT22;7898;48.658;9.068;2023-12-14T00:11:28;4.80;99.90
15596;DHT22;7898;48.658;9.068;2023-12-14T00:13:56;4.80;99.90
15596;DHT22;7898;48.658;9.068;2023-12-14T00:16:22;4.90;99.90
15596;DHT22;7898;48.658;9.068;2023-12-14T00:18:49;4.90;99.90
15596;DHT22;7898;48.658;9.068;2023-12-14T00:21:17;5.00;99.90
15596;DHT22;7898;48.658;9.068;2023-12-14T00:23:44;5.00;99.90
15596;DHT22;7898;48.658;9.068;2023-12-14T00:26:11;5.00;99.90
15596;DHT22;7898;48.658;9.068;2023-12-14T00:28:38;5.00;99.90
15596;DHT22;7898;48.658;9.068;2023-12-14T00:31:05;5.00;99.90
15596;DHT22;7898;48.658;9.068;2023-12-14T00:33:32;4.90;99.90
15596;DHT22;7898;48.658;9.068;2023-12-14T00:35:59;4.90;99.90
15596;DHT22;7898;48.658;9.068;2023-12-14T00:38:27;4.90;99.90
15596;DHT22;7898;48.658;9.068;2023-12-14T00:40:54;4.90;99.90
15596;DHT22;7898;48.658;9.068;2023-12-14T00:43:21;4.90;99.90
15596;DHT22;7898;48.658;9.068;2023-12-14T00:45:48;5.40;99.90
15596;DHT22;7898;48.658;9.068;2023-12-14T00:48:14;4.90;99.90
15596;DHT22;7898;48.658;9.068;2023-12-14T00:50:41;5.00;99.90
15596;DHT22;7898;48.658;9.068;2023-12-14T00:53:08;5.10;99.90
15596;DHT22;7898;48.658;9.068;2023-12-14T00:55:36;5.00;99.90
15596;DHT22;7898;48.658;9.068;2023-12-14T00:58:03;5.00;99.90
15596;DHT22;7898;48.658;9.068;2023-12-14T01:00:30;5.10;99.90
15596;DHT22;7898;48.658;9.068;2023-12-14T01:02:57;5.00;99.90
15596;DHT22;7898;48.658;9.068;2023-12-14T01:05:26;5.00;99.90
15596;DHT22;7898;48.658;9.068;2023-12-14T01:07:53;5.10;99.90
15596;DHT22;7898;48.658;9.068;2023-12-14T01:10:20;5.30;99.90
15596;DHT22;7898;48.658;9.068;2023-12-14T01:12:49;5.10;99.90
15596;DHT22;7898;48.658;9.068;2023-12-14T01:15:16;5.10;99.90
15596;DHT22;7898;48.658;9.068;2023-12-14T01:17:43;5.10;99.90
15596;DHT22;7898;48.658;9.068;2023-12-14T01:20:10;5.00;99.90
15596;DHT22;7898;48.658;9.068;2023-12-14T01:22:37;5.00;99.90
15596;DHT22;7898;48.658;9.068;2023-12-14T01:25:04;5.10;99.90
15596;DHT22;7898;48.658;9.068;2023-12-14T01:27:31;5.00;99.90
15596;DHT22;7898;48.658;9.068;2023-12-14T01:29:59;5.00;99.90
15596;DHT22;7898;48.658;9.068;2023-12-14T01:32:26;5.00;99.90
15596;DHT22;7898;48.658;9.068;2023-12-14T01:34:53;4.90;99.90
15596;DHT22;7898;48.658;9.068;2023-12-14T01:37:20;5.10;99.90
15596;DHT22;7898;48.658;9.068;2023-12-14T01:39:47;5.00;99.90
15596;DHT22;7898;48.658;9.068;2023-12-14T01:42:14;5.00;99.90
15596;DHT22;7898;48.658;9.068;2023-12-14T01:44:41;5.00;99.90
15596;DHT22;7898;48.658;9.068;2023-12-14T01:47:09;5.10;99.90
15596;DHT22;7898;48.658;9.068;2023-12-14T01:49:36;5.10;99.90
15596;DHT22;7898;48.658;9.068;2023-12-14T01:52:03;5.00;99.90
15596;DHT22;7898;48.658;9.068;2023-12-14T01:54:30;4.90;99.90
15596;DHT22;7898;48.658;9.068;2023-12-14T01:56:56;4.90;99.90
15596;DHT22;7898;48.658;9.068;2023-12-14T01:59:23;4.90;99.90
15596;DHT22;7898;48.658;9.068;2023-12-14T02:01:53;4.90;99.90
15596;DHT22;7898;48.658;9.068;2023-12-14T02:04:24;4.80;99.90
15596;DHT22;7898;48.658;9.068;2023-12-14T02:06:51;4.90;99.90
15596;DHT22;7898;48.658;9.068;2023-12-14T02:09:17;4.90;99.90
15596;DHT22;7898;48.658;9.068;2023-12-14T02:11:44;4.90;99.90
15596;DHT22;7898;48.658;9.068;2023-12-14T02:14:12;4.90;99.90
15596;DHT22;7898;48.658;9.068;2023-12-14T02:16:39;5.00;99.90
15596;DHT22;7898;48.658;9.068;2023-12-14T02:19:06;5.10;99.90
15596;DHT22;7898;48.658;9.068;2023-12-14T02:21:34;5.10;99.90
15596;DHT22;7898;48.658;9.068;2023-12-14T02:24:03;5.20;99.90
15596;DHT22;7898;48.658;9.068;2023-12-14T02:26:29;5.20;99.90
15596;DHT22;7898;48.658;9.068;2023-12-14T02:28:56;5.30;99.90
15596;DHT22;7898;48.658;9.068;2023-12-14T02:31:23;5.30;99.90
15596;DHT22;7898;48.658;9.068;2023-12-14T02:33:50;5.40;99.90
15596;DHT22;7898;48.658;9.068;2023-12-14T02:36:17;5.40;99.90
15596;DHT22;7898;48.658;9.068;2023-12-14T02:38:44;5.40;99.90
15596;DHT22;7898;48.658;9.068;2023-12-14T02:41:12;5.30;99.90
15596;DHT22;7898;48.658;9.068;2023-12-14T02:43:39;5.30;99.90
15596;DHT22;7898;48.658;9.068;2023-12-14T02:46:07;5.30;99.90
15596;DHT22;7898;48.658;9.068;2023-12-14T02:48:34;5.30;99.90
15596;DHT22;7898;48.658;9.068;2023-12-14T02:51:01;5.20;99.90
15596;DHT22;7898;48.658;9.068;2023-12-14T02:53:28;5.20;99.90
15596;DHT22;7898;48.658;9.068;2023-12-14T02:55:55;5.20;99.90
15596;DHT22;7898;48.658;9.068;2023-12-14T02:58:23;5.20;99.90
15596;DHT22;7898;48.658;9.068;2023-12-14T03:00:50;5.20;99.90
15596;DHT22;7898;48.658;9.068;2023-12-14T03:03:16;5.30;99.90
15596;DHT22;7898;48.658;9.068;2023-12-14T03:05:43;5.30;99.90
15596;DHT22;7898;48.658;9.068;2023-12-14T03:08:10;5.30;99.90
15596;DHT22;7898;48.658;9.068;2023-12-14T03:10:38;5.40;99.90
15596;DHT22;7898;48.658;9.068;2023-12-14T03:13:05;5.40;99.90
15596;DHT22;7898;48.658;9.068;2023-12-14T03:15:33;5.50;99.90
15596;DHT22;7898;48.658;9.068;2023-12-14T03:18:00;5.40;99.90
15596;DHT22;7898;48.658;9.068;2023-12-14T03:20:29;5.50;99.90
15596;DHT22;7898;48.658;9.068;2023-12-14T03:22:56;5.40;99.90
15596;DHT22;7898;48.658;9.068;2023-12-14T03:25:22;5.50;99.90
15596;DHT22;7898;48.658;9.068;2023-12-14T03:27:49;5.50;99.90
15596;DHT22;7898;48.658;9.068;2023-12-14T03:30:16;5.50;99.90
15596;DHT22;7898;48.658;9.068;2023-12-14T03:32:44;5.50;99.90
15596;DHT22;7898;48.658;9.068;2023-12-14T03:35:11;5.50;99.90
15596;DHT22;7898;48.658;9.068;2023-12-14T03:37:38;5.50;99.90
15596;DHT22;7898;48.658;9.068;2023-12-14T03:40:06;5.60;99.90
15596;DHT22;7898;48.658;9.068;2023-12-14T03:42:33;5.60;99.90
15596;DHT22;7898;48.658;9.068;2023-12-14T03:45:00;5.60;99.90
15596;DHT22;7898;48.658;9.068;2023-12-14T03:47:27;5.70;99.90
15596;DHT22;7898;48.658;9.068;2023-12-14T03:49:55;5.60;99.90
15596;DHT22;7898;48.658;9.068;2023-12-14T03:52:22;5.50;99.90
15596;DHT22;7898;48.658;9.068;2023-12-14T03:54:48;5.50;99.90
15596;DHT22;7898;48.658;9.068;2023-12-14T03:57:15;5.50;99.90
15596;DHT22;7898;48.658;9.068;2023-12-14T03:59:42;5.50;99.90
15596;DHT22;7898;48.658;9.068;2023-12-14T04:02:09;5.50;99.90
15596;DHT22;7898;48.658;9.068;2023-12-14T04:04:36;5.60;99.90
15596;DHT22;7898;48.658;9.068;2023-12-14T04:07:04;5.50;99.90
15596;DHT22;7898;48.658;9.068;2023-12-14T04:09:31;5.70;99.90
15596;DHT22;7898;48.658;9.068;2023-12-14T04:11:58;5.60;99.90
15596;DHT22;7898;48.658;9.068;2023-12-14T04:14:25;5.60;99.90
15596;DHT22;7898;48.658;9.068;2023-12-14T04:16:51;5.60;99.90
15596;DHT22;7898;48.658;9.068;2023-12-14T04:19:18;5.60;99.90
15596;DHT22;7898;48.658;9.068;2023-12-14T04:21:45;5.70;99.90
15596;DHT22;7898;48.658;9.068;2023-12-14T04:24:13;5.70;99.90
15596;DHT22;7898;48.658;9.068;2023-12-14T04:26:40;5.70;99.90
15596;DHT22;7898;48.658;9.068;2023-12-14T04:29:07;5.80;99.90
15596;DHT22;7898;48.658;9.068;2023-12-14T04:31:34;5.80;99.90
15596;DHT22;7898;48.658;9.068;2023-12-14T04:34:01;5.70;99.90
15596;DHT22;7898;48.658;9.068;2023-12-14T04:36:28;5.70;99.90
15596;DHT22;7898;48.658;9.068;2023-12-14T04:38:55;5.70;99.90
15596;DHT22;7898;48.658;9.068;2023-12-14T04:41:23;5.70;99.90
15596;DHT22;7898;48.658;9.068;2023-12-14T04:43:50;5.60;99.90
15596;DHT22;7898;48.658;9.068;2023-12-14T04:46:17;5.60;99.90
15596;DHT22;7898;48.658;9.068;2023-12-14T04:48:44;5.50;99.90
15596;DHT22;7898;48.658;9.068;2023-12-14T04:51:12;5.50;99.90
15596;DHT22;7898;48.658;9.068;2023-12-14T04:53:39;5.50;99.90
15596;DHT22;7898;48.658;9.068;2023-12-14T04:56:10;5.60;99.90
15596;DHT22;7898;48.658;9.068;2023-12-14T04:58:38;5.60;99.90
15596;DHT22;7898;48.658;9.068;2023-12-14T05:01:06;5.60;99.90
15596;DHT22;7898;48.658;9.068;2023-12-14T05:03:34;5.60;99.90
15596;DHT22;7898;48.658;9.068;2023-12-14T05:06:01;5.60;99.90
15596;DHT22;7898;48.658;9.068;2023-12-14T05:08:28;5.70;99.90
15596;DHT22;7898;48.658;9.068;2023-12-14T05:10:55;5.70;99.90
15596;DHT22;7898;48.658;9.068;2023-12-14T05:13:21;5.70;99.90
15596;DHT22;7898;48.658;9.068;2023-12-14T05:15:50;5.60;99.90
15596;DHT22;7898;48.658;9.068;2023-12-14T05:18:17;5.70;99.90
15596;DHT22;7898;48.658;9.068;2023-12-14T05:20:44;5.60;99.90
15596;DHT22;7898;48.658;9.068;2023-12-14T05:23:11;5.70;99.90
15596;DHT22;7898;48.658;9.068;2023-12-14T05:25:38;5.60;99.90
15596;DHT22;7898;48.658;9.068;2023-12-14T05:28:05;5.70;99.90
15596;DHT22;7898;48.658;9.068;2023-12-14T05:30:32;5.60;99.90
15596;DHT22;7898;48.658;9.068;2023-12-14T05:33:00;5.60;99.90
15596;DHT22;7898;48.658;9.068;2023-12-14T05:35:28;5.50;99.90
15596;DHT22;7898;48.658;9.068;2023-12-14T05:37:54;5.60;99.90
15596;DHT22;7898;48.658;9.068;2023-12-14T05:40:21;5.60;99.90
15596;DHT22;7898;48.658;9.068;2023-12-14T05:42:48;5.60;99.90
15596;DHT22;7898;48.658;9.068;2023-12-14T05:45:15;5.70;99.90
15596;DHT22;7898;48.658;9.068;2023-12-14T05:47:44;5.60;99.90
15596;DHT22;7898;48.658;9.068;2023-12-14T05:50:12;5.50;99.90
15596;DHT22;7898;48.658;9.068;2023-12-14T05:52:39;5.50;99.90
15596;DHT22;7898;48.658;9.068;2023-12-14T05:55:07;5.40;99.90
15596;DHT22;7898;48.658;9.068;2023-12-14T05:57:35;5.40;99.90
15596;DHT22;7898;48.658;9.068;2023-12-14T06:00:02;5.60;99.90
15596;DHT22;7898;48.658;9.068;2023-12-14T06:02:31;5.40;99.90
15596;DHT22;7898;48.658;9.068;2023-12-14T06:04:58;5.50;99.90
15596;DHT22;7898;48.658;9.068;2023-12-14T06:07:26;5.50;99.90
15596;DHT22;7898;48.658;9.068;2023-12-14T06:09:53;5.70;99.90
15596;DHT22;7898;48.658;9.068;2023-12-14T06:12:20;5.50;99.90
15596;DHT22;7898;48.658;9.068;2023-12-14T06:14:47;5.50;99.90
15596;DHT22;7898;48.658;9.068;2023-12-14T06:17:13;5.50;99.90
15596;DHT22;7898;48.658;9.068;2023-12-14T06:19:40;5.50;99.90
15596;DHT22;7898;48.658;9.068;2023-12-14T06:22:07;5.60;99.90
15596;DHT22;7898;48.658;9.068;2023-12-14T06:24:35;5.50;99.90
15596;DHT22;7898;48.658;9.068;2023-12-14T06:27:02;5.60;99.90
15596;DHT22;7898;48.658;9.068;2023-12-14T06:29:30;5.60;99.90
15596;DHT22;7898;48.658;9.068;2023-12-14T06:31:57;5.60;99.90
15596;DHT22;7898;48.658;9.068;2023-12-14T06:34:24;5.60;99.90
15596;DHT22;7898;48.658;9.068;2023-12-14T06:36:51;5.50;99.90
15596;DHT22;7898;48.658;9.068;2023-12-14T06:39:17;5.50;99.90
15596;DHT22;7898;48.658;9.068;2023-12-14T06:41:46;5.50;99.90
15596;DHT22;7898;48.658;9.068;2023-12-14T06:44:13;5.60;99.90
15596;DHT22;7898;48.658;9.068;2023-12-14T06:46:40;5.60;99.90
15596;DHT22;7898;48.658;9.068;2023-12-14T06:49:06;5.70;99.90
15596;DHT22;7898;48.658;9.068;2023-12-14T06:51:33;5.60;99.90
15596;DHT22;7898;48.658;9.068;2023-12-14T06:54:00;5.70;99.90
15596;DHT22;7898;48.658;9.068;2023-12-14T06:56:27;5.70;99.90
15596;DHT22;7898;48.658;9.068;2023-12-14T06:58:55;5.80;99.90
15596;DHT22;7898;48.658;9.068;2023-12-14T07:01:22;5.80;99.90
15596;DHT22;7898;48.658;9.068;2023-12-14T07:03:49;5.80;99.90
15596;DHT22;7898;48.658;9.068;2023-12-14T07:06:17;5.80;99.90
15596;DHT22;7898;48.658;9.068;2023-12-14T07:08:44;5.70;99.90
15596;DHT22;7898;48.658;9.068;2023-12-14T07:11:13;5.70;99.90
15596;DHT22;7898;48.658;9.068;2023-12-14T07:13:40;5.80;99.90
15596;DHT22;7898;48.658;9.068;2023-12-14T07:16:09;5.70;99.90
15596;DHT22;7898;48.658;9.068;2023-12-14T07:18:37;5.70;99.90
15596;DHT22;7898;48.658;9.068;2023-12-14T07:21:05;5.70;99.90
15596;DHT22;7898;48.658;9.068;2023-12-14T07:23:32;5.70;99.90
15596;DHT22;7898;48.658;9.068;2023-12-14T07:25:59;5.70;99.90
15596;DHT22;7898;48.658;9.068;2023-12-14T07:28:26;5.60;99.90
15596;DHT22;7898;48.658;9.068;2023-12-14T07:30:53;5.60;99.90
15596;DHT22;7898;48.658;9.068;2023-12-14T07:33:22;5.60;99.90
15596;DHT22;7898;48.658;9.068;2023-12-14T07:35:49;5.60;99.90
15596;DHT22;7898;48.658;9.068;2023-12-14T07:38:16;5.60;99.90
15596;DHT22;7898;48.658;9.068;2023-12-14T07:40:43;5.60;99.90
15596;DHT22;7898;48.658;9.068;2023-12-14T07:43:10;5.60;99.90
15596;DHT22;7898;48.658;9.068;2023-12-14T07:45:37;5.60;99.90
15596;DHT22;7898;48.658;9.068;2023-12-14T07:48:04;5.60;99.90
15596;DHT22;7898;48.658;9.068;2023-12-14T07:50:32;5.70;99.90
15596;DHT22;7898;48.658;9.068;2023-12-14T07:52:59;5.70;99.90
15596;DHT22;7898;48.658;9.068;2023-12-14T07:55:26;5.70;99.90
15596;DHT22;7898;48.658;9.068;2023-12-14T07:57:53;5.80;99.90
15596;DHT22;7898;48.658;9.068;2023-12-14T08:00:20;5.80;99.90
15596;DHT22;7898;48.658;9.068;2023-12-14T08:02:47;5.80;99.90
15596;DHT22;7898;48.658;9.068;2023-12-14T08:05:14;5.80;99.90
15596;DHT22;7898;48.658;9.068;2023-12-14T08:07:42;5.80;99.90
15596;DHT22;7898;48.658;9.068;2023-12-14T08:10:09;5.80;99.90
15596;DHT22;7898;48.658;9.068;2023-12-14T08:12:36;5.90;99.90
15596;DHT22;7898;48.658;9.068;2023-12-14T08:15:04;6.00;99.90
15596;DHT22;7898;48.658;9.068;2023-12-14T08:17:31;6.10;99.90
15596;DHT22;7898;48.658;9.068;2023-12-14T08:19:58;6.30;99.90
15596;DHT22;7898;48.658;9.068;2023-12-14T08:22:25;6.30;99.90
15596;DHT22;7898;48.658;9.068;2023-12-14T08:24:53;6.40;99.90
15596;DHT22;7898;48.658;9.068;2023-12-14T08:27:20;6.30;99.90
15596;DHT22;7898;48.658;9.068;2023-12-14T08:29:47;6.30;99.90
15596;DHT22;7898;48.658;9.068;2023-12-14T08:32:14;6.40;99.90
15596;DHT22;7898;48.658;9.068;2023-12-14T08:34:41;6.50;99.90
15596;DHT22;7898;48.658;9.068;2023-12-14T08:37:08;6.60;99.90
15596;DHT22;7898;48.658;9.068;2023-12-14T08:39:35;6.60;99.90
15596;DHT22;7898;48.658;9.068;2023-12-14T08:42:04;6.80;99.90
15596;DHT22;7898;48.658;9.068;2023-12-14T08:44:30;6.70;99.90
15596;DHT22;7898;48.658;9.068;2023-12-14T08:46:57;6.80;99.90
15596;DHT22;7898;48.658;9.068;2023-12-14T08:49:25;6.80;99.90
15596;DHT22;7898;48.658;9.068;2023-12-14T08:51:51;6.80;99.90
15596;DHT22;7898;48.658;9.068;2023-12-14T08:54:18;6.90;99.90
15596;DHT22;7898;48.658;9.068;2023-12-14T08:56:45;6.90;99.90
15596;DHT22;7898;48.658;9.068;2023-12-14T08:59:14;7.10;99.90
15596;DHT22;7898;48.658;9.068;2023-12-14T09:01:41;7.20;99.90
15596;DHT22;7898;48.658;9.068;2023-12-14T09:04:08;7.30;99.90
15596;DHT22;7898;48.658;9.068;2023-12-14T09:06:35;7.30;99.90
15596;DHT22;7898;48.658;9.068;2023-12-14T09:09:02;7.30;99.90
15596;DHT22;7898;48.658;9.068;2023-12-14T09:11:29;7.20;99.90
15596;DHT22;7898;48.658;9.068;2023-12-14T09:13:56;7.20;99.90
15596;DHT22;7898;48.658;9.068;2023-12-14T09:16:24;7.20;99.90
15596;DHT22;7898;48.658;9.068;2023-12-14T09:18:51;7.20;99.90
15596;DHT22;7898;48.658;9.068;2023-12-14T09:21:18;7.20;99.90
15596;DHT22;7898;48.658;9.068;2023-12-14T09:23:45;7.10;99.90
15596;DHT22;7898;48.658;9.068;2023-12-14T09:26:12;7.10;99.90
15596;DHT22;7898;48.658;9.068;2023-12-14T09:28:39;7.10;99.90
15596;DHT22;7898;48.658;9.068;2023-12-14T09:31:06;7.20;99.90
15596;DHT22;7898;48.658;9.068;2023-12-14T09:33:34;7.20;99.90
15596;DHT22;7898;48.658;9.068;2023-12-14T09:36:01;7.30;99.90
15596;DHT22;7898;48.658;9.068;2023-12-14T09:38:28;7.30;99.90
15596;DHT22;7898;48.658;9.068;2023-12-14T09:40:55;7.40;99.90
15596;DHT22;7898;48.658;9.068;2023-12-14T09:43:23;7.40;99.90
15596;DHT22;7898;48.658;9.068;2023-12-14T09:45:50;7.40;99.90
15596;DHT22;7898;48.658;9.068;2023-12-14T09:48:18;7.50;99.90
15596;DHT22;7898;48.658;9.068;2023-12-14T09:50:47;7.60;99.90
15596;DHT22;7898;48.658;9.068;2023-12-14T09:53:14;7.70;99.90
15596;DHT22;7898;48.658;9.068;2023-12-14T09:55:41;7.70;99.90
15596;DHT22;7898;48.658;9.068;2023-12-14T09:58:09;7.60;99.90
15596;DHT22;7898;48.658;9.068;2023-12-14T10:00:38;7.00;99.90
15596;DHT22;7898;48.658;9.068;2023-12-14T10:03:24;7.70;99.90
15596;DHT22;7898;48.658;9.068;2023-12-14T10:05:53;7.70;99.90
15596;DHT22;7898;48.658;9.068;2023-12-14T10:08:20;7.70;99.90
15596;DHT22;7898;48.658;9.068;2023-12-14T10:10:49;7.80;99.90
15596;DHT22;7898;48.658;9.068;2023-12-14T10:13:17;7.80;99.90
15596;DHT22;7898;48.658;9.068;2023-12-14T10:15:44;7.90;99.90
15596;DHT22;7898;48.658;9.068;2023-12-14T10:18:12;8.00;99.90
15596;DHT22;7898;48.658;9.068;2023-12-14T10:20:39;8.40;99.90
15596;DHT22;7898;48.658;9.068;2023-12-14T10:23:09;8.50;99.90
15596;DHT22;7898;48.658;9.068;2023-12-14T10:25:36;8.50;99.90
15596;DHT22;7898;48.658;9.068;2023-12-14T10:28:03;8.50;99.90
15596;DHT22;7898;48.658;9.068;2023-12-14T10:30:30;8.50;99.90
15596;DHT22;7898;48.658;9.068;2023-12-14T10:32:57;8.50;99.90
15596;DHT22;7898;48.658;9.068;2023-12-14T10:35:24;8.50;99.90
15596;DHT22;7898;48.658;9.068;2023-12-14T10:37:52;8.50;99.90
15596;DHT22;7898;48.658;9.068;2023-12-14T10:40:21;8.50;99.90
15596;DHT22;7898;48.658;9.068;2023-12-14T10:42:49;8.40;99.90
15596;DHT22;7898;48.658;9.068;2023-12-14T10:45:18;8.50;99.90
15596;DHT22;7898;48.658;9.068;2023-12-14T10:47:47;8.70;99.90
15596;DHT22;7898;48.658;9.068;2023-12-14T10:50:14;8.70;99.90
15596;DHT22;7898;48.658;9.068;2023-12-14T10:52:43;8.80;99.90
15596;DHT22;7898;48.658;9.068;2023-12-14T10:55:15;8.60;99.90
15596;DHT22;7898;48.658;9.068;2023-12-14T10:57:47;8.50;99.90
15596;DHT22;7898;48.658;9.068;2023-12-14T11:00:16;8.50;99.90
15596;DHT22;7898;48.658;9.068;2023-12-14T11:02:45;8.50;99.90
15596;DHT22;7898;48.658;9.068;2023-12-14T11:05:14;8.50;99.90
15596;DHT22;7898;48.658;9.068;2023-12-14T11:07:49;8.60;99.90
15596;DHT22;7898;48.658;9.068;2023-12-14T11:10:21;8.70;99.90
15596;DHT22;7898;48.658;9.068;2023-12-14T11:12:55;8.80;99.90
15596;DHT22;7898;48.658;9.068;2023-12-14T11:15:22;9.10;99.90
15596;DHT22;7898;48.658;9.068;2023-12-14T11:18:24;9.50;99.90
15596;DHT22;7898;48.658;9.068;2023-12-14T11:20:54;10.10;99.90
15596;DHT22;7898;48.658;9.068;2023-12-14T11:23:30;10.50;99.90
15596;DHT22;7898;48.658;9.068;2023-12-14T11:25:59;10.80;99.90
15596;DHT22;7898;48.658;9.068;2023-12-14T11:28:31;10.90;99.90
15596;DHT22;7898;48.658;9.068;2023-12-14T11:30:58;10.80;99.90
15596;DHT22;7898;48.658;9.068;2023-12-14T11:33:28;10.80;99.90
15596;DHT22;7898;48.658;9.068;2023-12-14T11:35:55;10.70;99.90
15596;DHT22;7898;48.658;9.068;2023-12-14T11:38:23;10.60;99.90
15596;DHT22;7898;48.658;9.068;2023-12-14T11:40:50;10.50;99.90
15596;DHT22;7898;48.658;9.068;2023-12-14T11:43:18;10.40;99.90
15596;DHT22;7898;48.658;9.068;2023-12-14T11:45:47;10.10;99.90
15596;DHT22;7898;48.658;9.068;2023-12-14T11:48:14;9.90;99.90
15596;DHT22;7898;48.658;9.068;2023-12-14T11:50:42;9.70;99.90
15596;DHT22;7898;48.658;9.068;2023-12-14T11:53:10;9.50;99.90
15596;DHT22;7898;48.658;9.068;2023-12-14T11:55:40;9.20;99.90
15596;DHT22;7898;48.658;9.068;2023-12-14T11:58:07;9.00;99.90
15596;DHT22;7898;48.658;9.068;2023-12-14T12:00:35;8.80;99.90
15596;DHT22;7898;48.658;9.068;2023-12-14T12:03:13;8.70;99.90
15596;DHT22;7898;48.658;9.068;2023-12-14T12:05:42;8.50;99.90
15596;DHT22;7898;48.658;9.068;2023-12-14T12:08:10;8.40;99.90
15596;DHT22;7898;48.658;9.068;2023-12-14T12:10:37;8.20;99.90
15596;DHT22;7898;48.658;9.068;2023-12-14T12:13:06;8.00;99.90
15596;DHT22;7898;48.658;9.068;2023-12-14T12:15:33;7.90;99.90
15596;DHT22;7898;48.658;9.068;2023-12-14T12:18:05;7.90;99.90
15596;DHT22;7898;48.658;9.068;2023-12-14T12:20:33;7.90;99.90
15596;DHT22;7898;48.658;9.068;2023-12-14T12:23:01;8.00;99.90
15596;DHT22;7898;48.658;9.068;2023-12-14T12:25:29;7.90;99.90
15596;DHT22;7898;48.658;9.068;2023-12-14T12:27:56;8.00;99.90
15596;DHT22;7898;48.658;9.068;2023-12-14T12:30:24;8.00;99.90
15596;DHT22;7898;48.658;9.068;2023-12-14T12:32:51;8.00;99.90
15596;DHT22;7898;48.658;9.068;2023-12-14T12:35:18;8.00;99.90
15596;DHT22;7898;48.658;9.068;2023-12-14T12:37:46;8.00;99.90
15596;DHT22;7898;48.658;9.068;2023-12-14T12:40:19;8.10;99.90
15596;DHT22;7898;48.658;9.068;2023-12-14T12:42:46;8.10;99.90
15596;DHT22;7898;48.658;9.068;2023-12-14T12:45:15;8.10;99.90
15596;DHT22;7898;48.658;9.068;2023-12-14T12:47:42;8.10;99.90
15596;DHT22;7898;48.658;9.068;2023-12-14T12:50:09;8.20;99.90
15596;DHT22;7898;48.658;9.068;2023-12-14T12:52:36;8.20;99.90
15596;DHT22;7898;48.658;9.068;2023-12-14T12:55:06;8.20;99.90
15596;DHT22;7898;48.658;9.068;2023-12-14T12:57:33;8.10;99.90
15596;DHT22;7898;48.658;9.068;2023-12-14T13:00:00;8.30;99.90
15596;DHT22;7898;48.658;9.068;2023-12-14T13:02:26;8.30;99.90
15596;DHT22;7898;48.658;9.068;2023-12-14T13:04:53;8.50;99.90
15596;DHT22;7898;48.658;9.068;2023-12-14T13:07:20;8.50;99.90
15596;DHT22;7898;48.658;9.068;2023-12-14T13:09:47;8.60;99.90
15596;DHT22;7898;48.658;9.068;2023-12-14T13:12:15;8.70;99.90
15596;DHT22;7898;48.658;9.068;2023-12-14T13:14:42;8.70;99.90
15596;DHT22;7898;48.658;9.068;2023-12-14T13:17:09;8.80;99.90
15596;DHT22;7898;48.658;9.068;2023-12-14T13:19:36;8.80;99.90
15596;DHT22;7898;48.658;9.068;2023-12-14T13:22:03;8.90;99.90
15596;DHT22;7898;48.658;9.068;2023-12-14T13:24:30;8.90;99.90
15596;DHT22;7898;48.658;9.068;2023-12-14T13:26:57;8.90;99.90
15596;DHT22;7898;48.658;9.068;2023-12-14T13:29:25;8.80;99.90
15596;DHT22;7898;48.658;9.068;2023-12-14T13:31:52;8.80;99.90
15596;DHT22;7898;48.658;9.068;2023-12-14T13:34:19;8.70;99.90
15596;DHT22;7898;48.658;9.068;2023-12-14T13:36:46;8.60;99.90
15596;DHT22;7898;48.658;9.068;2023-12-14T13:39:13;8.50;99.90
15596;DHT22;7898;48.658;9.068;2023-12-14T13:41:40;8.30;99.90
15596;DHT22;7898;48.658;9.068;2023-12-14T13:44:07;8.10;99.90
15596;DHT22;7898;48.658;9.068;2023-12-14T13:46:36;8.00;99.90
15596;DHT22;7898;48.658;9.068;2023-12-14T13:49:03;7.80;99.90
15596;DHT22;7898;48.658;9.068;2023-12-14T13:51:30;7.70;99.90
15596;DHT22;7898;48.658;9.068;2023-12-14T13:53:57;7.60;99.90
15596;DHT22;7898;48.658;9.068;2023-12-14T13:56:24;7.50;99.90
15596;DHT22;7898;48.658;9.068;2023-12-14T13:58:51;7.30;99.90
15596;DHT22;7898;48.658;9.068;2023-12-14T14:01:17;7.20;99.90
15596;DHT22;7898;48.658;9.068;2023-12-14T14:03:46;7.10;99.90
15596;DHT22;7898;48.658;9.068;2023-12-14T14:06:13;7.00;99.90
15596;DHT22;7898;48.658;9.068;2023-12-14T14:08:40;7.00;99.90
15596;DHT22;7898;48.658;9.068;2023-12-14T14:11:07;6.90;99.90
15596;DHT22;7898;48.658;9.068;2023-12-14T14:13:34;6.90;99.90
15596;DHT22;7898;48.658;9.068;2023-12-14T14:16:01;6.80;99.90
15596;DHT22;7898;48.658;9.068;2023-12-14T14:18:30;6.70;99.90
15596;DHT22;7898;48.658;9.068;2023-12-14T14:20:58;6.60;99.90
15596;DHT22;7898;48.658;9.068;2023-12-14T14:23:26;6.60;99.90
15596;DHT22;7898;48.658;9.068;2023-12-14T14:25:53;6.60;99.90
15596;DHT22;7898;48.658;9.068;2023-12-14T14:28:20;6.60;99.90
15596;DHT22;7898;48.658;9.068;2023-12-14T14:30:48;6.60;99.90
15596;DHT22;7898;48.658;9.068;2023-12-14T14:33:15;6.60;99.90
15596;DHT22;7898;48.658;9.068;2023-12-14T14:35:44;6.60;99.90
15596;DHT22;7898;48.658;9.068;2023-12-14T14:38:12;6.60;99.90
15596;DHT22;7898;48.658;9.068;2023-12-14T14:40:39;6.60;99.90
15596;DHT22;7898;48.658;9.068;2023-12-14T14:43:07;6.70;99.90
15596;DHT22;7898;48.658;9.068;2023-12-14T14:45:34;6.70;99.90
15596;DHT22;7898;48.658;9.068;2023-12-14T14:48:03;6.80;99.90
15596;DHT22;7898;48.658;9.068;2023-12-14T14:50:34;6.70;99.90
15596;DHT22;7898;48.658;9.068;2023-12-14T14:53:01;6.80;99.90
15596;DHT22;7898;48.658;9.068;2023-12-14T14:55:30;6.70;99.90
15596;DHT22;7898;48.658;9.068;2023-12-14T14:57:58;6.80;99.90
15596;DHT22;7898;48.658;9.068;2023-12-14T15:00:25;6.70;99.90
15596;DHT22;7898;48.658;9.068;2023-12-14T15:02:52;6.70;99.90
15596;DHT22;7898;48.658;9.068;2023-12-14T15:05:19;6.70;99.90
15596;DHT22;7898;48.658;9.068;2023-12-14T15:07:46;6.70;99.90
15596;DHT22;7898;48.658;9.068;2023-12-14T15:10:13;6.70;99.90
15596;DHT22;7898;48.658;9.068;2023-12-14T15:12:41;6.60;99.90
15596;DHT22;7898;48.658;9.068;2023-12-14T15:15:09;6.60;99.90
15596;DHT22;7898;48.658;9.068;2023-12-14T15:17:36;6.50;99.90
15596;DHT22;7898;48.658;9.068;2023-12-14T15:20:04;6.50;99.90
15596;DHT22;7898;48.658;9.068;2023-12-14T15:22:31;6.50;99.90
15596;DHT22;7898;48.658;9.068;2023-12-14T15:24:58;6.50;99.90
15596;DHT22;7898;48.658;9.068;2023-12-14T15:27:25;6.50;99.90
15596;DHT22;7898;48.658;9.068;2023-12-14T15:29:53;6.50;99.90
15596;DHT22;7898;48.658;9.068;2023-12-14T15:32:20;6.40;99.90
15596;DHT22;7898;48.658;9.068;2023-12-14T15:34:47;6.40;99.90
15596;DHT22;7898;48.658;9.068;2023-12-14T15:37:15;6.40;99.90
15596;DHT22;7898;48.658;9.068;2023-12-14T15:39:42;6.40;99.90
15596;DHT22;7898;48.658;9.068;2023-12-14T15:42:13;6.40;99.90
15596;DHT22;7898;48.658;9.068;2023-12-14T15:44:40;6.30;99.90
15596;DHT22;7898;48.658;9.068;2023-12-14T15:47:09;6.30;99.90
15596;DHT22;7898;48.658;9.068;2023-12-14T15:49:36;6.60;99.90
15596;DHT22;7898;48.658;9.068;2023-12-14T15:52:03;6.60;99.90
15596;DHT22;7898;48.658;9.068;2023-12-14T15:54:30;6.60;99.90
15596;DHT22;7898;48.658;9.068;2023-12-14T15:56:57;6.50;99.90
15596;DHT22;7898;48.658;9.068;2023-12-14T15:59:25;6.40;99.90
15596;DHT22;7898;48.658;9.068;2023-12-14T16:01:52;6.40;99.90
15596;DHT22;7898;48.658;9.068;2023-12-14T16:04:21;6.30;99.90